createdAt,value
2022-07-31T00:00:52.378Z,101296.47
2022-07-31T00:02:55.906Z,101281.50
2022-07-31T00:04:59.574Z,101286.91
2022-07-31T00:07:03.930Z,101286.06
2022-07-31T00:09:07.634Z,101288.78
2022-07-31T00:11:31.226Z,101290.66
2022-07-31T00:13:58.172Z,101288.06
2022-07-31T00:15:59.611Z,101292.63
2022-07-31T00:18:03.113Z,101299.72
2022-07-31T00:20:07.957Z,101288.13
2022-07-31T00:22:12.590Z,101290.69
2022-07-31T00:24:16.195Z,101295.97
2022-07-31T00:26:19.741Z,101292.38
2022-07-31T00:28:23.264Z,101232.53
2022-07-31T00:30:28.155Z,101288.88
2022-07-31T00:32:31.714Z,101283.50
2022-07-31T00:34:35.292Z,101281.91
2022-07-31T00:36:39.195Z,101275.84
2022-07-31T00:38:42.716Z,101277.66
2022-07-31T00:40:50.183Z,101277.59
2022-07-31T00:42:53.643Z,101269.59
2022-07-31T00:44:57.237Z,101270.50
2022-07-31T00:47:04.710Z,101267.00
2022-07-31T00:49:10.240Z,101259.88
2022-07-31T00:51:14.041Z,101261.59
2022-07-31T00:53:19.090Z,101262.50
2022-07-31T00:55:22.862Z,101263.38
2022-07-31T00:57:26.469Z,101260.69
2022-07-31T00:59:30.780Z,101255.44
2022-07-31T01:01:34.475Z,101258.16
2022-07-31T01:03:39.600Z,101252.81
2022-07-31T01:05:43.280Z,101243.25
2022-07-31T01:07:47.141Z,101256.53
2022-07-31T01:09:53.688Z,101243.38
2022-07-31T01:12:03.823Z,101250.50
2022-07-31T01:14:10.043Z,101257.63
2022-07-31T01:16:15.478Z,101251.59
2022-07-31T01:18:19.595Z,101248.97
2022-07-31T01:20:25.966Z,101251.56
2022-07-31T01:23:10.274Z,101257.75
2022-07-31T01:25:34.243Z,101259.66
2022-07-31T01:28:01.273Z,101261.44
2022-07-31T01:30:07.171Z,101260.66
2022-07-31T01:32:17.686Z,101259.84
2022-07-31T01:34:28.777Z,101259.00
2022-07-31T01:36:40.646Z,101252.78
2022-07-31T01:38:48.835Z,101245.75
2022-07-31T01:40:58.141Z,101244.91
2022-07-31T01:43:12.385Z,101212.22
2022-07-31T01:45:20.723Z,101244.75
2022-07-31T01:47:26.313Z,101232.44
2022-07-31T01:49:31.087Z,101239.59
2022-07-31T01:51:37.206Z,101244.13
2022-07-31T01:53:42.358Z,101241.53
2022-07-31T01:55:56.493Z,101236.19
2022-07-31T01:58:11.235Z,101239.78
2022-07-31T02:00:33.811Z,101226.56
2022-07-31T02:02:42.305Z,101237.13
2022-07-31T02:04:47.275Z,101234.41
2022-07-31T02:06:53.516Z,101233.47
2022-07-31T02:08:58.135Z,101238.75
2022-07-31T02:11:03.155Z,101240.41
2022-07-31T02:13:11.665Z,101236.88
2022-07-31T02:15:22.472Z,101233.53
2022-07-31T02:17:27.644Z,101237.16
2022-07-31T02:20:01.696Z,101233.75
2022-07-31T02:22:05.859Z,101240.75
2022-07-31T02:24:10.230Z,101237.25
2022-07-31T02:26:17.462Z,101237.34
2022-07-31T02:28:22.269Z,101236.44
2022-07-31T02:30:39.366Z,101231.91
2022-07-31T02:32:47.850Z,101232.75
2022-07-31T02:34:51.898Z,101227.41
2022-07-31T02:36:56.621Z,101228.25
2022-07-31T02:39:00.847Z,101227.44
2022-07-31T02:41:06.129Z,101231.88
2022-07-31T02:43:11.972Z,101227.41
2022-07-31T02:45:16.579Z,101224.72
2022-07-31T02:47:22.419Z,101225.59
2022-07-31T02:49:27.727Z,101229.22
2022-07-31T02:51:39.661Z,101226.56
2022-07-31T02:53:46.748Z,101225.63
2022-07-31T02:55:51.667Z,101202.72
2022-07-31T02:57:55.164Z,101215.03
2022-07-31T02:59:58.940Z,101220.31
2022-07-31T03:02:03.475Z,101223.88
2022-07-31T03:04:11.146Z,101231.84
2022-07-31T03:06:14.833Z,101243.53
2022-07-31T03:08:18.397Z,101232.91
2022-07-31T03:10:25.290Z,101240.91
2022-07-31T03:12:37.913Z,101237.41
2022-07-31T03:14:41.545Z,101234.75
2022-07-31T03:16:46.012Z,101234.84
2022-07-31T03:18:50.581Z,101218.13
2022-07-31T03:20:56.183Z,101225.28
2022-07-31T03:23:01.857Z,101226.19
2022-07-31T03:25:06.458Z,101230.56
2022-07-31T03:27:09.951Z,101225.16
2022-07-31T03:29:39.123Z,101235.78
2022-07-31T03:31:36.858Z,101225.19
2022-07-31T03:33:41.104Z,101224.31
2022-07-31T03:35:44.822Z,101226.91
2022-07-31T03:37:50.615Z,101233.94
2022-07-31T03:39:54.249Z,101228.59
2022-07-31T03:41:58.841Z,101225.03
2022-07-31T03:44:02.739Z,101226.81
2022-07-31T03:46:07.710Z,101227.69
2022-07-31T03:48:12.008Z,101232.97
2022-07-31T03:50:16.211Z,101239.94
2022-07-31T03:52:19.753Z,101231.13
2022-07-31T03:54:24.524Z,101234.72
2022-07-31T03:56:46.048Z,101243.50
2022-07-31T03:58:52.691Z,101235.53
2022-07-31T04:00:56.942Z,101241.72
2022-07-31T04:03:07.196Z,101238.22
2022-07-31T04:05:18.825Z,101232.94
2022-07-31T04:07:22.573Z,101232.94
2022-07-31T04:09:27.663Z,101230.28
2022-07-31T04:11:31.173Z,101229.34
2022-07-31T04:13:36.334Z,101230.19
2022-07-31T04:15:43.174Z,101233.69
2022-07-31T04:17:47.029Z,101238.06
2022-07-31T04:19:54.548Z,101238.03
2022-07-31T04:21:58.540Z,101241.50
2022-07-31T04:24:01.948Z,101236.16
2022-07-31T04:26:31.156Z,101234.34
2022-07-31T04:28:37.731Z,101232.56
2022-07-31T04:30:41.163Z,101229.97
2022-07-31T04:32:45.014Z,101226.41
2022-07-31T04:34:52.384Z,101237.97
2022-07-31T04:36:56.323Z,101231.84
2022-07-31T04:39:00.107Z,101231.88
2022-07-31T04:41:03.666Z,101219.56
2022-07-31T04:43:08.461Z,101232.78
2022-07-31T04:45:11.871Z,101236.44
2022-07-31T04:47:16.585Z,101243.47
2022-07-31T04:49:24.088Z,101241.59
2022-07-31T04:51:27.930Z,101238.91
2022-07-31T04:53:32.590Z,101238.03
2022-07-31T04:55:42.778Z,101250.41
2022-07-31T04:57:46.285Z,101243.31
2022-07-31T04:59:59.434Z,101240.63
2022-07-31T05:02:07.674Z,101238.88
2022-07-31T05:04:11.799Z,101240.81
2022-07-31T05:06:15.378Z,101232.09
2022-07-31T05:08:18.771Z,101239.16
2022-07-31T05:10:41.756Z,101237.31
2022-07-31T05:12:46.193Z,101246.13
2022-07-31T05:14:51.031Z,101244.31
2022-07-31T05:16:54.620Z,101244.22
2022-07-31T05:18:58.819Z,101244.16
2022-07-31T05:21:21.438Z,101209.72
2022-07-31T05:23:51.727Z,101249.28
2022-07-31T05:26:16.440Z,101250.28
2022-07-31T05:28:19.949Z,101247.63
2022-07-31T05:30:34.805Z,101247.03
2022-07-31T05:32:38.965Z,101247.78
2022-07-31T05:34:42.621Z,101252.19
2022-07-31T05:36:47.391Z,101238.06
2022-07-31T05:38:50.877Z,101247.75
2022-07-31T05:41:09.724Z,101249.56
2022-07-31T05:43:36.573Z,101241.47
2022-07-31T05:45:48.572Z,101225.53
2022-07-31T05:47:53.214Z,101247.63
2022-07-31T05:49:56.679Z,101253.84
2022-07-31T05:52:00.173Z,101251.94
2022-07-31T05:54:03.573Z,101245.69
2022-07-31T05:56:27.692Z,101254.63
2022-07-31T05:58:35.558Z,101245.00
2022-07-31T06:00:40.406Z,101253.91
2022-07-31T06:02:45.308Z,101237.91
2022-07-31T06:05:11.385Z,101245.88
2022-07-31T06:07:14.889Z,101243.25
2022-07-31T06:09:18.389Z,101237.91
2022-07-31T06:11:23.046Z,101236.19
2022-07-31T06:13:27.868Z,101232.53
2022-07-31T06:15:36.118Z,101241.22
2022-07-31T06:17:44.585Z,101226.94
2022-07-31T06:20:00.716Z,101239.41
2022-07-31T06:22:04.690Z,101240.44
2022-07-31T06:24:09.087Z,101234.38
2022-07-31T06:26:19.445Z,101247.44
2022-07-31T06:28:47.913Z,101239.41
2022-07-31T06:30:49.187Z,101243.06
2022-07-31T06:32:52.758Z,101249.22
2022-07-31T06:34:56.396Z,101247.38
2022-07-31T06:37:01.602Z,101241.09
2022-07-31T06:39:05.257Z,101234.78
2022-07-31T06:41:44.414Z,101230.44
2022-07-31T06:44:06.168Z,101219.03
2022-07-31T06:46:28.470Z,101227.13
2022-07-31T06:48:50.446Z,101228.75
2022-07-31T06:53:26.732Z,101216.34
2022-07-31T06:55:30.490Z,101225.41
2022-07-31T06:57:34.150Z,101221.72
2022-07-31T06:59:39.925Z,101233.44
2022-07-31T07:01:44.616Z,101215.81
2022-07-31T07:03:49.192Z,101216.63
2022-07-31T07:05:53.786Z,101245.75
2022-07-31T07:07:57.330Z,101243.09
2022-07-31T07:10:03.232Z,101242.13
2022-07-31T07:12:38.388Z,101246.47
2022-07-31T07:14:41.907Z,101241.00
2022-07-31T07:16:45.875Z,101238.31
2022-07-31T07:18:49.631Z,101241.84
2022-07-31T07:20:54.238Z,101243.78
2022-07-31T07:22:58.299Z,101239.41
2022-07-31T07:25:17.354Z,101238.44
2022-07-31T07:27:20.805Z,101248.00
2022-07-31T07:29:24.462Z,101236.50
2022-07-31T07:31:29.468Z,101239.03
2022-07-31T07:33:41.399Z,101234.75
2022-07-31T07:35:48.949Z,101233.91
2022-07-31T07:37:55.913Z,101211.63
2022-07-31T07:40:03.599Z,101211.78
2022-07-31T07:42:09.038Z,101216.38
2022-07-31T07:44:12.536Z,101219.00
2022-07-31T07:46:16.215Z,101224.97
2022-07-31T07:48:25.947Z,101222.34
2022-07-31T07:51:01.432Z,101222.69
2022-07-31T07:53:08.350Z,101202.13
2022-07-31T07:55:36.042Z,101219.69
2022-07-31T07:58:01.214Z,101203.53
2022-07-31T08:00:39.592Z,101211.50
2022-07-31T08:02:44.792Z,101201.78
2022-07-31T08:04:50.574Z,101202.25
2022-07-31T08:06:54.097Z,101205.75
2022-07-31T08:09:00.907Z,101212.66
2022-07-31T08:11:23.096Z,101209.94
2022-07-31T08:13:40.835Z,101217.66
2022-07-31T08:15:47.167Z,101208.81
2022-07-31T08:18:04.526Z,101210.31
2022-07-31T08:20:09.143Z,101208.56
2022-07-31T08:22:12.987Z,101208.72
2022-07-31T08:24:17.269Z,101208.81
2022-07-31T08:26:22.209Z,101197.19
2022-07-31T08:28:26.347Z,101197.09
2022-07-31T08:30:31.566Z,101206.94
2022-07-31T08:32:36.111Z,101196.44
2022-07-31T08:34:42.319Z,101188.56
2022-07-31T08:36:46.520Z,101185.13
2022-07-31T08:38:52.082Z,101193.78
2022-07-31T08:41:14.931Z,101187.31
2022-07-31T08:44:00.314Z,101189.97
2022-07-31T08:45:43.793Z,101174.28
2022-07-31T08:48:09.202Z,101188.28
2022-07-31T08:50:21.770Z,101197.25
2022-07-31T08:52:31.789Z,101186.06
2022-07-31T08:54:46.020Z,101194.97
2022-07-31T08:56:52.959Z,101202.66
2022-07-31T08:58:57.147Z,101191.69
2022-07-31T09:01:02.986Z,101200.22
2022-07-31T09:03:06.894Z,101190.16
2022-07-31T09:05:24.582Z,101196.78
2022-07-31T09:07:30.091Z,101195.78
2022-07-31T09:09:51.829Z,101192.13
2022-07-31T09:11:57.821Z,101177.06
2022-07-31T09:14:37.213Z,101190.94
2022-07-31T09:16:50.599Z,101191.78
2022-07-31T09:19:00.847Z,101191.50
2022-07-31T09:21:07.385Z,101180.06
2022-07-31T09:23:12.399Z,101187.91
2022-07-31T09:25:19.800Z,101187.75
2022-07-31T09:27:31.435Z,101186.00
2022-07-31T09:29:36.471Z,101193.44
2022-07-31T09:31:41.000Z,101182.50
2022-07-31T09:34:11.879Z,101185.53
2022-07-31T09:36:15.878Z,101183.50
2022-07-31T09:38:31.550Z,101175.44
2022-07-31T09:40:55.355Z,101176.34
2022-07-31T09:43:24.559Z,101176.69
2022-07-31T09:45:30.437Z,101188.22
2022-07-31T09:47:34.753Z,101189.38
2022-07-31T09:49:43.355Z,101187.22
2022-07-31T09:51:48.327Z,101188.16
2022-07-31T09:53:57.722Z,101182.78
2022-07-31T09:56:37.134Z,101185.88
2022-07-31T09:58:41.400Z,101179.06
2022-07-31T10:00:45.358Z,101178.91
2022-07-31T10:02:49.649Z,101180.34
2022-07-31T10:04:55.269Z,101182.59
2022-07-31T10:07:00.030Z,101175.59
2022-07-31T10:09:06.367Z,101174.75
2022-07-31T10:11:30.973Z,101182.56
2022-07-31T10:13:49.257Z,101188.34
2022-07-31T10:15:55.115Z,101180.56
2022-07-31T10:18:18.884Z,101180.53
2022-07-31T10:21:13.227Z,101176.66
2022-07-31T10:23:30.376Z,101179.75
2022-07-31T10:25:53.324Z,101170.84
2022-07-31T10:27:58.678Z,101169.19
2022-07-31T10:30:03.527Z,101168.97
2022-07-31T10:32:07.786Z,101167.69
2022-07-31T10:34:15.292Z,101156.78
2022-07-31T10:36:40.334Z,101165.03
2022-07-31T10:39:06.899Z,101161.41
2022-07-31T10:41:42.413Z,101161.72
2022-07-31T10:43:52.519Z,101156.50
2022-07-31T10:46:03.580Z,101152.91
2022-07-31T10:48:18.898Z,101141.72
2022-07-31T10:50:31.134Z,101143.53
2022-07-31T10:52:42.355Z,101149.59
2022-07-31T10:55:02.688Z,101141.03
2022-07-31T10:57:23.143Z,101141.81
2022-07-31T10:59:46.505Z,101142.19
2022-07-31T11:02:08.672Z,101139.78
2022-07-31T11:04:34.913Z,101112.94
2022-07-31T11:06:59.212Z,101111.84
2022-07-31T11:09:27.934Z,101124.63
2022-07-31T11:11:46.784Z,101128.25
2022-07-31T11:14:08.559Z,101131.31
2022-07-31T11:16:35.213Z,101132.41
2022-07-31T11:19:00.884Z,101134.78
2022-07-31T11:21:28.786Z,101146.59
2022-07-31T11:23:31.974Z,101141.47
2022-07-31T11:25:38.462Z,101120.03
2022-07-31T11:27:41.892Z,101127.50
2022-07-31T11:30:01.877Z,101137.53
2022-07-31T11:32:22.838Z,101138.41
2022-07-31T11:34:29.684Z,101138.34
2022-07-31T11:36:33.190Z,101134.00
2022-07-31T11:38:37.778Z,101122.31
2022-07-31T11:40:50.380Z,101136.06
2022-07-31T11:43:23.252Z,101131.94
2022-07-31T11:45:18.483Z,101117.97
2022-07-31T11:48:09.275Z,101096.47
2022-07-31T11:49:48.972Z,101114.81
2022-07-31T11:52:01.683Z,101122.75
2022-07-31T11:54:05.286Z,101137.75
2022-07-31T11:56:10.139Z,101106.19
2022-07-31T11:58:15.182Z,101120.84
2022-07-31T12:00:26.587Z,101110.75
2022-07-31T12:02:33.123Z,101115.38
2022-07-31T12:04:37.303Z,101113.69
2022-07-31T12:06:40.785Z,101090.44
2022-07-31T12:08:44.940Z,101109.75
2022-07-31T12:10:49.208Z,101090.13
2022-07-31T12:12:54.007Z,101106.06
2022-07-31T12:14:58.212Z,101080.25
2022-07-31T12:17:03.193Z,101105.91
2022-07-31T12:19:06.870Z,101103.28
2022-07-31T12:21:10.262Z,101095.16
2022-07-31T12:23:40.634Z,101089.84
2022-07-31T12:25:43.010Z,101097.09
2022-07-31T12:27:55.740Z,101083.47
2022-07-31T12:29:59.197Z,101087.06
2022-07-31T12:32:03.818Z,101076.47
2022-07-31T12:34:07.276Z,101095.69
2022-07-31T12:36:16.456Z,101100.19
2022-07-31T12:38:40.947Z,101092.38
2022-07-31T12:40:48.445Z,101095.16
2022-07-31T12:42:52.141Z,101093.97
2022-07-31T12:44:58.966Z,101080.53
2022-07-31T12:47:02.789Z,101076.88
2022-07-31T12:49:08.309Z,101065.75
2022-07-31T12:51:14.217Z,101052.44
2022-07-31T12:53:17.737Z,101066.78
2022-07-31T12:55:22.418Z,101050.22
2022-07-31T12:57:26.047Z,101073.63
2022-07-31T12:59:29.538Z,101069.84
2022-07-31T13:01:34.582Z,101075.47
2022-07-31T13:03:45.406Z,101071.59
2022-07-31T13:05:52.160Z,101057.53
2022-07-31T13:07:56.076Z,101064.69
2022-07-31T13:10:19.839Z,101065.97
2022-07-31T13:12:22.996Z,101056.88
2022-07-31T13:14:26.498Z,101061.44
2022-07-31T13:16:30.710Z,101049.41
2022-07-31T13:18:35.731Z,101052.00
2022-07-31T13:20:39.305Z,101048.16
2022-07-31T13:22:42.852Z,101045.31
2022-07-31T13:24:46.287Z,101033.63
2022-07-31T13:26:51.004Z,101031.59
2022-07-31T13:28:54.570Z,101008.75
2022-07-31T13:30:58.066Z,101036.69
2022-07-31T13:33:01.467Z,101019.09
2022-07-31T13:35:23.562Z,101007.13
2022-07-31T13:37:31.545Z,101015.34
2022-07-31T13:39:34.989Z,101021.00
2022-07-31T13:41:39.487Z,101027.22
2022-07-31T13:44:00.183Z,101033.13
2022-07-31T13:46:04.736Z,101031.72
2022-07-31T13:48:09.886Z,101006.19
2022-07-31T13:50:14.899Z,101027.69
2022-07-31T13:52:18.402Z,101023.22
2022-07-31T13:54:21.897Z,101007.50
2022-07-31T13:56:39.300Z,101009.16
2022-07-31T13:58:46.600Z,101001.75
2022-07-31T14:00:50.234Z,101010.69
2022-07-31T14:02:53.745Z,101000.59
2022-07-31T14:04:57.281Z,101026.34
2022-07-31T14:07:04.167Z,101007.59
2022-07-31T14:09:07.921Z,101004.22
2022-07-31T14:11:13.825Z,101005.69
2022-07-31T14:13:19.242Z,101015.47
2022-07-31T14:15:25.347Z,101011.81
2022-07-31T14:17:30.904Z,101020.28
2022-07-31T14:19:44.262Z,101008.91
2022-07-31T14:21:49.992Z,100916.16
2022-07-31T14:24:01.513Z,101009.03
2022-07-31T14:26:05.177Z,101010.69
2022-07-31T14:28:10.025Z,100990.38
2022-07-31T14:30:20.280Z,101004.34
2022-07-31T14:32:25.111Z,101011.91
2022-07-31T14:34:35.373Z,101004.56
2022-07-31T14:36:39.486Z,101005.69
2022-07-31T14:38:43.090Z,101003.19
2022-07-31T14:40:48.567Z,101001.84
2022-07-31T14:42:52.050Z,100988.47
2022-07-31T14:44:55.907Z,101000.66
2022-07-31T14:46:59.385Z,101000.53
2022-07-31T14:49:04.602Z,100998.41
2022-07-31T14:51:08.207Z,100988.97
2022-07-31T14:53:12.127Z,100996.25
2022-07-31T14:55:15.606Z,100996.22
2022-07-31T14:57:22.540Z,100989.75
2022-07-31T14:59:26.166Z,100976.94
2022-07-31T15:01:30.727Z,100991.66
2022-07-31T15:03:34.508Z,100987.78
2022-07-31T15:06:40.099Z,100975.03
2022-07-31T15:08:02.629Z,100988.06
2022-07-31T15:10:09.067Z,100985.59
2022-07-31T15:12:16.646Z,100993.91
2022-07-31T15:14:21.426Z,100974.22
2022-07-31T15:16:24.827Z,100986.63
2022-07-31T15:18:28.374Z,100955.75
2022-07-31T15:20:32.969Z,100991.00
2022-07-31T15:22:36.710Z,100980.06
2022-07-31T15:24:46.843Z,100990.84
2022-07-31T15:26:53.076Z,100981.31
2022-07-31T15:28:56.476Z,100959.19
2022-07-31T15:31:01.580Z,100970.81
2022-07-31T15:33:05.430Z,100968.22
2022-07-31T15:35:12.658Z,100969.66
2022-07-31T15:37:20.043Z,100968.22
2022-07-31T15:39:23.864Z,100969.25
2022-07-31T15:41:27.366Z,100977.28
2022-07-31T15:43:32.037Z,100964.84
2022-07-31T15:45:35.511Z,100971.03
2022-07-31T15:47:41.005Z,100967.09
2022-07-31T15:49:44.710Z,100953.25
2022-07-31T15:51:48.131Z,100970.56
2022-07-31T15:53:51.598Z,100965.47
2022-07-31T15:55:55.084Z,100968.78
2022-07-31T15:57:58.745Z,100934.72
2022-07-31T16:00:02.286Z,100955.69
2022-07-31T16:02:14.068Z,100932.44
2022-07-31T16:04:18.961Z,100942.94
2022-07-31T16:06:27.760Z,100951.31
2022-07-31T16:08:35.613Z,100935.84
2022-07-31T16:10:39.624Z,100950.38
2022-07-31T16:12:43.581Z,100947.38
2022-07-31T16:14:47.067Z,100946.91
2022-07-31T16:16:51.589Z,100947.91
2022-07-31T16:19:00.113Z,100943.19
2022-07-31T16:21:05.135Z,100949.16
2022-07-31T16:23:08.527Z,100956.81
2022-07-31T16:25:12.421Z,100939.28
2022-07-31T16:27:15.850Z,100948.63
2022-07-31T16:29:59.765Z,100942.91
2022-07-31T16:31:44.968Z,100938.81
2022-07-31T16:33:50.792Z,100934.66
2022-07-31T16:35:55.402Z,100935.84
2022-07-31T16:38:00.184Z,100919.09
2022-07-31T16:40:04.403Z,100917.69
2022-07-31T16:42:08.309Z,100912.38
2022-07-31T16:44:11.760Z,100927.75
2022-07-31T16:46:15.364Z,100944.22
2022-07-31T16:48:19.333Z,100946.22
2022-07-31T16:50:22.918Z,100948.19
2022-07-31T16:52:26.471Z,100940.44
2022-07-31T16:54:31.310Z,100934.25
2022-07-31T16:56:34.935Z,100935.00
2022-07-31T16:58:38.447Z,100931.56
2022-07-31T17:00:42.418Z,100929.97
2022-07-31T17:02:45.929Z,100938.81
2022-07-31T17:04:54.098Z,100939.78
2022-07-31T17:06:57.836Z,100928.91
2022-07-31T17:09:17.339Z,100925.38
2022-07-31T17:11:23.162Z,100930.88
2022-07-31T17:13:26.573Z,100923.69
2022-07-31T17:15:29.975Z,100931.75
2022-07-31T17:17:33.387Z,100938.03
2022-07-31T17:19:45.208Z,100864.41
2022-07-31T17:21:50.158Z,100925.72
2022-07-31T17:23:53.734Z,100927.53
2022-07-31T17:25:59.232Z,100928.38
2022-07-31T17:28:04.091Z,100923.25
2022-07-31T17:30:09.179Z,100925.47
2022-07-31T17:32:12.693Z,100916.16
2022-07-31T17:34:16.144Z,100898.59
2022-07-31T17:36:19.544Z,100919.78
2022-07-31T17:38:23.180Z,100929.59
2022-07-31T17:40:42.554Z,100931.56
2022-07-31T17:42:46.813Z,100929.81
2022-07-31T17:44:54.951Z,100935.50
2022-07-31T17:46:58.983Z,100927.59
2022-07-31T17:49:02.897Z,100917.81
2022-07-31T17:51:06.460Z,100938.28
2022-07-31T17:53:10.055Z,100942.25
2022-07-31T17:55:17.163Z,100945.91
2022-07-31T17:57:22.783Z,100946.09
2022-07-31T17:59:27.565Z,100922.75
2022-07-31T18:01:32.822Z,100940.91
2022-07-31T18:03:36.304Z,100936.81
2022-07-31T18:05:39.810Z,100949.22
2022-07-31T18:07:43.458Z,100952.06
2022-07-31T18:09:56.227Z,100942.38
2022-07-31T18:11:59.768Z,100951.19
2022-07-31T18:14:05.807Z,100941.91
2022-07-31T18:16:10.416Z,100943.97
2022-07-31T18:18:16.592Z,100957.59
2022-07-31T18:20:21.659Z,100941.00
2022-07-31T18:22:25.153Z,100953.31
2022-07-31T18:24:28.646Z,100961.59
2022-07-31T18:26:32.160Z,100957.31
2022-07-31T18:28:35.680Z,100964.44
2022-07-31T18:30:40.998Z,100970.66
2022-07-31T18:32:44.570Z,100967.22
2022-07-31T18:34:49.349Z,100940.88
2022-07-31T18:36:55.055Z,100970.22
2022-07-31T18:38:58.784Z,100960.97
2022-07-31T18:41:02.227Z,100959.38
2022-07-31T18:43:06.242Z,100964.72
2022-07-31T18:45:10.517Z,100972.44
2022-07-31T18:47:14.688Z,100969.19
2022-07-31T18:51:01.114Z,100958.16
2022-07-31T18:51:44.494Z,100967.94
2022-07-31T18:53:48.024Z,100978.66
2022-07-31T18:55:51.493Z,100968.97
2022-07-31T18:57:54.972Z,100984.25
2022-07-31T19:00:01.256Z,100982.72
2022-07-31T19:02:06.273Z,100974.50
2022-07-31T19:04:14.912Z,100984.19
2022-07-31T19:06:18.962Z,100957.97
2022-07-31T19:08:23.864Z,100978.94
2022-07-31T19:10:29.545Z,100966.84
2022-07-31T19:12:34.846Z,100985.63
2022-07-31T19:14:38.541Z,100978.81
2022-07-31T19:16:41.935Z,100991.91
2022-07-31T19:18:47.629Z,100996.97
2022-07-31T19:20:58.812Z,101000.75
2022-07-31T19:23:17.160Z,100999.25
2022-07-31T19:25:22.019Z,101008.25
2022-07-31T19:27:39.916Z,100984.41
2022-07-31T19:29:49.469Z,100995.06
2022-07-31T19:31:52.863Z,101008.47
2022-07-31T19:33:56.332Z,101013.81
2022-07-31T19:36:02.190Z,101019.22
2022-07-31T19:38:06.277Z,101012.94
2022-07-31T19:40:11.145Z,101022.69
2022-07-31T19:42:15.986Z,101001.38
2022-07-31T19:44:19.425Z,101027.66
2022-07-31T19:46:22.967Z,101021.00
2022-07-31T19:48:26.783Z,101006.34
2022-07-31T19:50:30.683Z,101041.69
2022-07-31T19:52:34.166Z,101035.50
2022-07-31T19:54:37.698Z,101040.03
2022-07-31T19:56:41.145Z,101046.31
2022-07-31T19:58:46.655Z,101047.28
2022-07-31T20:00:50.131Z,101049.00
2022-07-31T20:02:56.405Z,101044.69
2022-07-31T20:05:00.146Z,101045.00
2022-07-31T20:07:03.801Z,101058.19
2022-07-31T20:09:07.336Z,101055.63
2022-07-31T20:11:11.128Z,101057.44
2022-07-31T20:13:14.585Z,101059.41
2022-07-31T20:15:19.376Z,101066.66
2022-07-31T20:17:22.804Z,101049.84
2022-07-31T20:19:26.253Z,101020.06
2022-07-31T20:21:31.997Z,101051.81
2022-07-31T20:23:41.491Z,101079.03
2022-07-31T20:25:45.022Z,101070.47
2022-07-31T20:27:48.898Z,101072.03
2022-07-31T20:29:52.363Z,101080.22
2022-07-31T20:31:57.203Z,101068.03
2022-07-31T20:34:00.663Z,101068.81
2022-07-31T20:36:05.563Z,101071.53
2022-07-31T20:38:15.697Z,101072.53
2022-07-31T20:40:19.585Z,101078.66
2022-07-31T20:42:23.099Z,101077.94
2022-07-31T20:44:26.546Z,101088.38
2022-07-31T20:46:30.029Z,101080.44
2022-07-31T20:48:35.026Z,101086.66
2022-07-31T20:50:38.538Z,101088.41
2022-07-31T20:52:46.909Z,101091.81
2022-07-31T20:54:52.110Z,101078.66
2022-07-31T20:56:55.579Z,101093.53
2022-07-31T20:58:59.307Z,101092.53
2022-07-31T21:01:02.828Z,101090.75
2022-07-31T21:03:06.749Z,101075.00
2022-07-31T21:05:11.593Z,101084.66
2022-07-31T21:07:15.051Z,101077.78
2022-07-31T21:09:18.847Z,101087.44
2022-07-31T21:11:22.338Z,101092.91
2022-07-31T21:13:36.202Z,101097.41
2022-07-31T21:15:42.525Z,101097.34
2022-07-31T21:17:47.920Z,101094.81
2022-07-31T21:19:51.407Z,101105.53
2022-07-31T21:21:56.246Z,101074.88
2022-07-31T21:24:00.843Z,101091.66
2022-07-31T21:26:07.552Z,101065.34
2022-07-31T21:28:11.690Z,101078.63
2022-07-31T21:30:15.547Z,101109.25
2022-07-31T21:32:19.513Z,101115.41
2022-07-31T21:34:23.409Z,101111.06
2022-07-31T21:36:27.174Z,101113.81
2022-07-31T21:38:32.649Z,101113.72
2022-07-31T21:40:38.656Z,101118.16
2022-07-31T21:42:43.585Z,101115.59
2022-07-31T21:44:47.636Z,101108.41
2022-07-31T21:46:56.107Z,101107.47
2022-07-31T21:49:00.908Z,101117.31
2022-07-31T21:51:04.926Z,101111.06
2022-07-31T21:53:08.756Z,101110.25
2022-07-31T21:55:13.683Z,101110.28
2022-07-31T21:57:17.087Z,101109.41
2022-07-31T21:59:20.484Z,101120.03
2022-07-31T22:01:24.054Z,101118.25
2022-07-31T22:03:27.537Z,101120.72
2022-07-31T22:05:48.703Z,101114.31
2022-07-31T22:07:52.824Z,101120.66
2022-07-31T22:09:56.210Z,101120.66
2022-07-31T22:12:01.788Z,101120.06
2022-07-31T22:14:05.377Z,101123.56
2022-07-31T22:16:08.962Z,101114.66
2022-07-31T22:18:12.833Z,101122.66
2022-07-31T22:20:17.902Z,101125.22
2022-07-31T22:22:21.920Z,101125.09
2022-07-31T22:24:25.624Z,101130.63
2022-07-31T22:26:30.291Z,101114.81
2022-07-31T22:28:36.245Z,101120.88
2022-07-31T22:30:39.989Z,101122.63
2022-07-31T22:32:44.134Z,101126.13
2022-07-31T22:34:47.737Z,101124.38
2022-07-31T22:36:51.369Z,101129.63
2022-07-31T22:38:54.879Z,101134.00
2022-07-31T22:40:59.277Z,101138.44
2022-07-31T22:43:03.427Z,101127.78
2022-07-31T22:45:09.650Z,101125.09
2022-07-31T22:47:13.709Z,101131.31
2022-07-31T22:49:19.270Z,101125.97
2022-07-31T22:51:22.888Z,101129.47
2022-07-31T22:53:26.698Z,101121.50
2022-07-31T22:55:30.085Z,101127.72
2022-07-31T22:57:33.794Z,101127.72
2022-07-31T22:59:37.198Z,101128.66
2022-07-31T23:01:44.594Z,101129.59
2022-07-31T23:03:47.988Z,101131.41
2022-07-31T23:06:28.111Z,101132.34
2022-07-31T23:08:14.909Z,101137.72
2022-07-31T23:10:19.064Z,101132.38
2022-07-31T23:12:22.558Z,101125.38
2022-07-31T23:14:31.916Z,101136.88
2022-07-31T23:16:35.561Z,101135.06
2022-07-31T23:18:40.307Z,101140.47
2022-07-31T23:20:43.777Z,101143.13
2022-07-31T23:22:47.401Z,101144.84
2022-07-31T23:24:50.882Z,101141.34
2022-07-31T23:26:54.286Z,101141.25
2022-07-31T23:28:58.006Z,101142.94
2022-07-31T23:31:01.445Z,101148.22
2022-07-31T23:33:05.080Z,101144.56
2022-07-31T23:35:10.833Z,101145.50
2022-07-31T23:37:14.275Z,101143.72
2022-07-31T23:39:18.500Z,101143.72
2022-07-31T23:41:35.815Z,101148.22
2022-07-31T23:43:39.695Z,101150.03
2022-07-31T23:45:43.117Z,101147.59
2022-07-31T23:47:47.746Z,101140.97
2022-07-31T23:49:51.414Z,101142.13
2022-07-31T23:51:56.823Z,101144.91
2022-07-31T23:54:00.266Z,101140.63
2022-07-31T23:56:03.669Z,101158.38
